sensor_id;sensor_type;location;lat;lon;timestamp;P1;durP1;ratioP1;P2;durP2;ratioP2
72573;SDS011;60603;52.548;13.420;2023-02-22T00:00:20;13.45;;;2.60;;
72573;SDS011;60603;52.548;13.420;2023-02-22T00:03:24;16.75;;;3.15;;
72573;SDS011;60603;52.548;13.420;2023-02-22T00:05:58;16.27;;;3.60;;
72573;SDS011;60603;52.548;13.420;2023-02-22T00:08:30;13.80;;;2.67;;
72573;SDS011;60603;52.548;13.420;2023-02-22T00:10:57;14.20;;;2.95;;
72573;SDS011;60603;52.548;13.420;2023-02-22T00:13:24;13.77;;;3.72;;
72573;SDS011;60603;52.548;13.420;2023-02-22T00:15:53;16.60;;;2.83;;
72573;SDS011;60603;52.548;13.420;2023-02-22T00:18:20;24.45;;;3.60;;
72573;SDS011;60603;52.548;13.420;2023-02-22T00:20:46;16.60;;;3.22;;
72573;SDS011;60603;52.548;13.420;2023-02-22T00:23:15;18.02;;;2.90;;
72573;SDS011;60603;52.548;13.420;2023-02-22T00:25:43;17.58;;;2.88;;
72573;SDS011;60603;52.548;13.420;2023-02-22T00:28:11;13.18;;;2.72;;
72573;SDS011;60603;52.548;13.420;2023-02-22T00:30:37;10.32;;;2.55;;
72573;SDS011;60603;52.548;13.420;2023-02-22T00:33:03;15.75;;;4.32;;
72573;SDS011;60603;52.548;13.420;2023-02-22T00:35:30;15.63;;;3.83;;
72573;SDS011;60603;52.548;13.420;2023-02-22T00:37:57;17.45;;;3.10;;
72573;SDS011;60603;52.548;13.420;2023-02-22T00:40:26;15.50;;;2.90;;
72573;SDS011;60603;52.548;13.420;2023-02-22T00:42:55;16.77;;;3.25;;
72573;SDS011;60603;52.548;13.420;2023-02-22T00:45:22;16.02;;;3.00;;
72573;SDS011;60603;52.548;13.420;2023-02-22T00:47:50;15.65;;;3.20;;
72573;SDS011;60603;52.548;13.420;2023-02-22T00:50:16;20.00;;;3.42;;
72573;SDS011;60603;52.548;13.420;2023-02-22T00:52:43;12.00;;;2.83;;
72573;SDS011;60603;52.548;13.420;2023-02-22T00:55:14;16.33;;;3.15;;
72573;SDS011;60603;52.548;13.420;2023-02-22T00:57:48;14.65;;;4.07;;
72573;SDS011;60603;52.548;13.420;2023-02-22T01:00:18;17.10;;;3.25;;
72573;SDS011;60603;52.548;13.420;2023-02-22T01:02:48;17.00;;;3.42;;
72573;SDS011;60603;52.548;13.420;2023-02-22T01:05:15;17.40;;;4.00;;
72573;SDS011;60603;52.548;13.420;2023-02-22T01:07:46;13.23;;;3.15;;
72573;SDS011;60603;52.548;13.420;2023-02-22T01:10:12;14.20;;;3.28;;
72573;SDS011;60603;52.548;13.420;2023-02-22T01:12:39;16.83;;;3.28;;
72573;SDS011;60603;52.548;13.420;2023-02-22T01:15:06;19.02;;;3.58;;
72573;SDS011;60603;52.548;13.420;2023-02-22T01:17:35;13.45;;;3.17;;
72573;SDS011;60603;52.548;13.420;2023-02-22T01:20:02;15.68;;;3.13;;
72573;SDS011;60603;52.548;13.420;2023-02-22T01:22:35;14.38;;;2.90;;
72573;SDS011;60603;52.548;13.420;2023-02-22T01:25:02;18.10;;;3.90;;
72573;SDS011;60603;52.548;13.420;2023-02-22T01:27:30;13.98;;;3.40;;
72573;SDS011;60603;52.548;13.420;2023-02-22T01:29:56;16.90;;;3.08;;
72573;SDS011;60603;52.548;13.420;2023-02-22T01:32:22;17.85;;;3.83;;
72573;SDS011;60603;52.548;13.420;2023-02-22T01:34:48;18.23;;;3.70;;
72573;SDS011;60603;52.548;13.420;2023-02-22T01:37:14;21.05;;;3.90;;
72573;SDS011;60603;52.548;13.420;2023-02-22T01:39:40;16.23;;;3.15;;
72573;SDS011;60603;52.548;13.420;2023-02-22T01:42:06;20.30;;;3.75;;
72573;SDS011;60603;52.548;13.420;2023-02-22T01:44:35;17.45;;;2.95;;
72573;SDS011;60603;52.548;13.420;2023-02-22T01:47:03;13.88;;;3.58;;
72573;SDS011;60603;52.548;13.420;2023-02-22T01:52:01;18.85;;;3.22;;
72573;SDS011;60603;52.548;13.420;2023-02-22T01:54:30;17.27;;;4.00;;
72573;SDS011;60603;52.548;13.420;2023-02-22T01:57:01;18.38;;;4.07;;
72573;SDS011;60603;52.548;13.420;2023-02-22T01:59:34;13.35;;;3.13;;
72573;SDS011;60603;52.548;13.420;2023-02-22T02:02:02;16.95;;;2.97;;
72573;SDS011;60603;52.548;13.420;2023-02-22T02:04:29;14.30;;;2.75;;
72573;SDS011;60603;52.548;13.420;2023-02-22T02:06:56;22.50;;;3.70;;
72573;SDS011;60603;52.548;13.420;2023-02-22T02:11:59;13.57;;;3.08;;
72573;SDS011;60603;52.548;13.420;2023-02-22T02:14:27;17.20;;;3.85;;
72573;SDS011;60603;52.548;13.420;2023-02-22T02:16:57;20.83;;;3.33;;
72573;SDS011;60603;52.548;13.420;2023-02-22T02:19:46;11.15;;;2.70;;
72573;SDS011;60603;52.548;13.420;2023-02-22T02:27:25;14.77;;;2.70;;
72573;SDS011;60603;52.548;13.420;2023-02-22T02:32:54;14.80;;;3.80;;
72573;SDS011;60603;52.548;13.420;2023-02-22T02:44:19;14.15;;;3.45;;
72573;SDS011;60603;52.548;13.420;2023-02-22T02:46:28;15.20;;;3.10;;
72573;SDS011;60603;52.548;13.420;2023-02-22T02:49:01;8.93;;;3.47;;
72573;SDS011;60603;52.548;13.420;2023-02-22T02:51:32;18.05;;;3.30;;
72573;SDS011;60603;52.548;13.420;2023-02-22T02:54:01;14.15;;;3.63;;
72573;SDS011;60603;52.548;13.420;2023-02-22T02:56:27;14.25;;;2.53;;
72573;SDS011;60603;52.548;13.420;2023-02-22T02:58:54;24.80;;;3.67;;
72573;SDS011;60603;52.548;13.420;2023-02-22T03:01:44;10.02;;;2.53;;
72573;SDS011;60603;52.548;13.420;2023-02-22T03:24:30;22.13;;;4.00;;
72573;SDS011;60603;52.548;13.420;2023-02-22T03:27:17;17.27;;;3.25;;
72573;SDS011;60603;52.548;13.420;2023-02-22T03:29:47;18.17;;;3.20;;
72573;SDS011;60603;52.548;13.420;2023-02-22T03:32:19;14.48;;;3.67;;
72573;SDS011;60603;52.548;13.420;2023-02-22T03:34:55;16.00;;;2.60;;
72573;SDS011;60603;52.548;13.420;2023-02-22T03:37:25;13.75;;;3.40;;
72573;SDS011;60603;52.548;13.420;2023-02-22T03:39:54;18.60;;;3.40;;
72573;SDS011;60603;52.548;13.420;2023-02-22T03:42:31;12.48;;;3.00;;
72573;SDS011;60603;52.548;13.420;2023-02-22T03:45:00;12.07;;;3.00;;
72573;SDS011;60603;52.548;13.420;2023-02-22T03:50:05;12.80;;;3.53;;
72573;SDS011;60603;52.548;13.420;2023-02-22T03:52:34;15.90;;;3.35;;
72573;SDS011;60603;52.548;13.420;2023-02-22T03:55:00;21.20;;;4.22;;
72573;SDS011;60603;52.548;13.420;2023-02-22T03:57:27;16.15;;;3.40;;
72573;SDS011;60603;52.548;13.420;2023-02-22T03:59:57;21.02;;;4.03;;
72573;SDS011;60603;52.548;13.420;2023-02-22T04:02:23;18.23;;;2.97;;
72573;SDS011;60603;52.548;13.420;2023-02-22T04:04:48;15.05;;;3.47;;
72573;SDS011;60603;52.548;13.420;2023-02-22T04:07:15;15.40;;;3.60;;
72573;SDS011;60603;52.548;13.420;2023-02-22T04:09:41;16.40;;;4.40;;
72573;SDS011;60603;52.548;13.420;2023-02-22T04:12:07;15.45;;;3.42;;
72573;SDS011;60603;52.548;13.420;2023-02-22T04:14:33;17.38;;;3.95;;
72573;SDS011;60603;52.548;13.420;2023-02-22T04:16:59;16.27;;;4.15;;
72573;SDS011;60603;52.548;13.420;2023-02-22T04:19:24;17.83;;;3.70;;
72573;SDS011;60603;52.548;13.420;2023-02-22T04:21:51;12.65;;;3.50;;
72573;SDS011;60603;52.548;13.420;2023-02-22T04:24:16;13.65;;;3.10;;
72573;SDS011;60603;52.548;13.420;2023-02-22T04:26:42;17.90;;;4.38;;
72573;SDS011;60603;52.548;13.420;2023-02-22T04:29:08;20.50;;;4.80;;
72573;SDS011;60603;52.548;13.420;2023-02-22T04:31:34;19.95;;;4.13;;
72573;SDS011;60603;52.548;13.420;2023-02-22T04:34:00;13.98;;;3.42;;
72573;SDS011;60603;52.548;13.420;2023-02-22T04:36:28;12.82;;;3.53;;
72573;SDS011;60603;52.548;13.420;2023-02-22T04:38:56;10.75;;;3.55;;
72573;SDS011;60603;52.548;13.420;2023-02-22T04:41:23;19.92;;;4.68;;
72573;SDS011;60603;52.548;13.420;2023-02-22T04:43:48;15.75;;;4.22;;
72573;SDS011;60603;52.548;13.420;2023-02-22T04:46:15;18.42;;;3.38;;
72573;SDS011;60603;52.548;13.420;2023-02-22T04:48:41;13.73;;;3.47;;
72573;SDS011;60603;52.548;13.420;2023-02-22T04:51:07;14.50;;;3.83;;
72573;SDS011;60603;52.548;13.420;2023-02-22T04:53:33;10.32;;;3.45;;
72573;SDS011;60603;52.548;13.420;2023-02-22T04:55:59;12.55;;;3.97;;
72573;SDS011;60603;52.548;13.420;2023-02-22T04:58:26;20.20;;;4.07;;
72573;SDS011;60603;52.548;13.420;2023-02-22T05:00:52;16.45;;;3.53;;
72573;SDS011;60603;52.548;13.420;2023-02-22T05:03:17;14.60;;;3.40;;
72573;SDS011;60603;52.548;13.420;2023-02-22T05:05:44;20.10;;;4.20;;
72573;SDS011;60603;52.548;13.420;2023-02-22T05:08:09;15.45;;;3.05;;
72573;SDS011;60603;52.548;13.420;2023-02-22T05:10:35;12.55;;;3.55;;
72573;SDS011;60603;52.548;13.420;2023-02-22T05:13:01;13.35;;;3.92;;
72573;SDS011;60603;52.548;13.420;2023-02-22T05:15:27;17.67;;;3.45;;
72573;SDS011;60603;52.548;13.420;2023-02-22T05:17:53;21.02;;;3.22;;
72573;SDS011;60603;52.548;13.420;2023-02-22T05:20:24;18.02;;;4.38;;
72573;SDS011;60603;52.548;13.420;2023-02-22T05:22:57;15.27;;;2.88;;
72573;SDS011;60603;52.548;13.420;2023-02-22T05:25:24;15.68;;;3.47;;
72573;SDS011;60603;52.548;13.420;2023-02-22T05:27:57;14.73;;;3.63;;
72573;SDS011;60603;52.548;13.420;2023-02-22T05:30:26;10.52;;;3.20;;
72573;SDS011;60603;52.548;13.420;2023-02-22T05:32:57;14.45;;;4.03;;
72573;SDS011;60603;52.548;13.420;2023-02-22T05:35:24;15.40;;;3.25;;
72573;SDS011;60603;52.548;13.420;2023-02-22T05:37:50;16.48;;;3.55;;
72573;SDS011;60603;52.548;13.420;2023-02-22T05:40:21;22.08;;;4.20;;
72573;SDS011;60603;52.548;13.420;2023-02-22T05:42:49;14.20;;;3.92;;
72573;SDS011;60603;52.548;13.420;2023-02-22T05:45:16;15.02;;;3.03;;
72573;SDS011;60603;52.548;13.420;2023-02-22T05:47:42;20.05;;;3.28;;
72573;SDS011;60603;52.548;13.420;2023-02-22T05:50:09;16.83;;;3.97;;
72573;SDS011;60603;52.548;13.420;2023-02-22T05:52:35;11.20;;;3.38;;
72573;SDS011;60603;52.548;13.420;2023-02-22T05:55:01;17.52;;;3.80;;
72573;SDS011;60603;52.548;13.420;2023-02-22T05:57:28;13.77;;;3.10;;
72573;SDS011;60603;52.548;13.420;2023-02-22T05:59:55;16.23;;;3.75;;
72573;SDS011;60603;52.548;13.420;2023-02-22T06:02:21;14.23;;;4.28;;
72573;SDS011;60603;52.548;13.420;2023-02-22T06:04:47;17.33;;;3.97;;
72573;SDS011;60603;52.548;13.420;2023-02-22T06:07:13;17.65;;;4.50;;
72573;SDS011;60603;52.548;13.420;2023-02-22T06:09:39;19.17;;;4.30;;
72573;SDS011;60603;52.548;13.420;2023-02-22T06:12:06;22.25;;;4.78;;
72573;SDS011;60603;52.548;13.420;2023-02-22T06:14:32;16.98;;;5.72;;
72573;SDS011;60603;52.548;13.420;2023-02-22T06:16:59;20.35;;;4.18;;
72573;SDS011;60603;52.548;13.420;2023-02-22T06:19:26;21.10;;;4.45;;
72573;SDS011;60603;52.548;13.420;2023-02-22T06:21:53;19.83;;;4.47;;
72573;SDS011;60603;52.548;13.420;2023-02-22T06:24:20;15.38;;;4.30;;
72573;SDS011;60603;52.548;13.420;2023-02-22T06:26:53;15.25;;;4.22;;
72573;SDS011;60603;52.548;13.420;2023-02-22T06:29:23;17.42;;;4.32;;
72573;SDS011;60603;52.548;13.420;2023-02-22T06:31:49;18.58;;;4.35;;
72573;SDS011;60603;52.548;13.420;2023-02-22T06:34:16;17.35;;;4.53;;
72573;SDS011;60603;52.548;13.420;2023-02-22T06:36:42;17.33;;;4.47;;
72573;SDS011;60603;52.548;13.420;2023-02-22T06:39:09;19.38;;;4.88;;
72573;SDS011;60603;52.548;13.420;2023-02-22T06:41:39;15.05;;;4.10;;
72573;SDS011;60603;52.548;13.420;2023-02-22T06:44:07;15.15;;;4.28;;
72573;SDS011;60603;52.548;13.420;2023-02-22T06:46:35;24.40;;;5.65;;
72573;SDS011;60603;52.548;13.420;2023-02-22T06:49:01;21.55;;;5.68;;
72573;SDS011;60603;52.548;13.420;2023-02-22T06:51:27;17.00;;;5.70;;
72573;SDS011;60603;52.548;13.420;2023-02-22T06:53:54;24.05;;;5.85;;
72573;SDS011;60603;52.548;13.420;2023-02-22T06:56:20;19.23;;;4.57;;
72573;SDS011;60603;52.548;13.420;2023-02-22T06:58:46;20.45;;;5.13;;
72573;SDS011;60603;52.548;13.420;2023-02-22T07:01:13;17.77;;;4.25;;
72573;SDS011;60603;52.548;13.420;2023-02-22T07:03:39;14.23;;;3.85;;
72573;SDS011;60603;52.548;13.420;2023-02-22T07:06:06;9.90;;;3.75;;
72573;SDS011;60603;52.548;13.420;2023-02-22T07:08:33;11.43;;;3.40;;
72573;SDS011;60603;52.548;13.420;2023-02-22T07:10:59;15.13;;;3.60;;
72573;SDS011;60603;52.548;13.420;2023-02-22T07:13:25;20.35;;;4.53;;
72573;SDS011;60603;52.548;13.420;2023-02-22T07:15:51;18.90;;;4.82;;
72573;SDS011;60603;52.548;13.420;2023-02-22T07:18:18;18.88;;;4.88;;
72573;SDS011;60603;52.548;13.420;2023-02-22T07:20:44;14.15;;;3.85;;
72573;SDS011;60603;52.548;13.420;2023-02-22T07:23:12;22.92;;;5.13;;
72573;SDS011;60603;52.548;13.420;2023-02-22T07:25:40;16.42;;;4.43;;
72573;SDS011;60603;52.548;13.420;2023-02-22T07:28:06;20.02;;;4.65;;
72573;SDS011;60603;52.548;13.420;2023-02-22T07:30:32;20.70;;;5.10;;
72573;SDS011;60603;52.548;13.420;2023-02-22T07:33:02;21.73;;;5.35;;
72573;SDS011;60603;52.548;13.420;2023-02-22T07:35:31;21.15;;;4.03;;
72573;SDS011;60603;52.548;13.420;2023-02-22T07:37:58;21.65;;;5.60;;
72573;SDS011;60603;52.548;13.420;2023-02-22T07:40:25;19.17;;;4.70;;
72573;SDS011;60603;52.548;13.420;2023-02-22T07:42:56;17.40;;;4.57;;
72573;SDS011;60603;52.548;13.420;2023-02-22T07:47:49;17.42;;;4.90;;
72573;SDS011;60603;52.548;13.420;2023-02-22T07:50:15;17.33;;;5.13;;
72573;SDS011;60603;52.548;13.420;2023-02-22T07:52:46;14.18;;;4.18;;
72573;SDS011;60603;52.548;13.420;2023-02-22T07:55:13;18.75;;;4.57;;
72573;SDS011;60603;52.548;13.420;2023-02-22T07:57:42;18.40;;;5.18;;
72573;SDS011;60603;52.548;13.420;2023-02-22T08:00:09;18.00;;;5.53;;
72573;SDS011;60603;52.548;13.420;2023-02-22T08:02:36;22.42;;;5.28;;
72573;SDS011;60603;52.548;13.420;2023-02-22T08:05:04;18.23;;;7.10;;
72573;SDS011;60603;52.548;13.420;2023-02-22T08:07:31;18.13;;;4.45;;
72573;SDS011;60603;52.548;13.420;2023-02-22T08:09:56;19.98;;;4.93;;
72573;SDS011;60603;52.548;13.420;2023-02-22T08:12:22;16.13;;;6.22;;
72573;SDS011;60603;52.548;13.420;2023-02-22T08:14:48;23.58;;;4.43;;
72573;SDS011;60603;52.548;13.420;2023-02-22T08:17:14;19.27;;;4.78;;
72573;SDS011;60603;52.548;13.420;2023-02-22T08:19:40;17.00;;;4.45;;
72573;SDS011;60603;52.548;13.420;2023-02-22T08:22:06;18.25;;;3.90;;
72573;SDS011;60603;52.548;13.420;2023-02-22T08:24:32;21.33;;;3.92;;
72573;SDS011;60603;52.548;13.420;2023-02-22T08:26:58;17.63;;;3.58;;
72573;SDS011;60603;52.548;13.420;2023-02-22T08:29:24;22.60;;;4.65;;
72573;SDS011;60603;52.548;13.420;2023-02-22T08:31:58;19.80;;;4.40;;
72573;SDS011;60603;52.548;13.420;2023-02-22T08:34:25;19.13;;;3.72;;
72573;SDS011;60603;52.548;13.420;2023-02-22T08:36:51;19.38;;;3.50;;
72573;SDS011;60603;52.548;13.420;2023-02-22T08:39:17;15.60;;;3.70;;
72573;SDS011;60603;52.548;13.420;2023-02-22T08:41:43;21.00;;;3.45;;
72573;SDS011;60603;52.548;13.420;2023-02-22T08:44:09;18.25;;;3.85;;
72573;SDS011;60603;52.548;13.420;2023-02-22T08:46:35;17.15;;;3.92;;
72573;SDS011;60603;52.548;13.420;2023-02-22T08:49:01;32.25;;;6.38;;
72573;SDS011;60603;52.548;13.420;2023-02-22T08:51:27;17.77;;;4.00;;
72573;SDS011;60603;52.548;13.420;2023-02-22T08:53:53;16.40;;;3.95;;
72573;SDS011;60603;52.548;13.420;2023-02-22T08:56:19;9.63;;;3.38;;
72573;SDS011;60603;52.548;13.420;2023-02-22T08:58:45;25.13;;;4.97;;
72573;SDS011;60603;52.548;13.420;2023-02-22T09:01:11;14.07;;;3.85;;
72573;SDS011;60603;52.548;13.420;2023-02-22T09:03:38;14.82;;;3.60;;
72573;SDS011;60603;52.548;13.420;2023-02-22T09:06:04;16.70;;;3.65;;
72573;SDS011;60603;52.548;13.420;2023-02-22T09:08:32;16.60;;;4.60;;
72573;SDS011;60603;52.548;13.420;2023-02-22T09:10:58;21.35;;;4.05;;
72573;SDS011;60603;52.548;13.420;2023-02-22T09:13:24;18.20;;;3.92;;
72573;SDS011;60603;52.548;13.420;2023-02-22T09:15:50;15.32;;;3.97;;
72573;SDS011;60603;52.548;13.420;2023-02-22T09:18:16;13.98;;;3.78;;
72573;SDS011;60603;52.548;13.420;2023-02-22T09:20:42;20.58;;;4.63;;
72573;SDS011;60603;52.548;13.420;2023-02-22T09:23:08;14.90;;;3.80;;
72573;SDS011;60603;52.548;13.420;2023-02-22T09:25:35;13.82;;;3.88;;
72573;SDS011;60603;52.548;13.420;2023-02-22T09:28:03;14.52;;;3.60;;
72573;SDS011;60603;52.548;13.420;2023-02-22T09:30:32;15.88;;;5.13;;
72573;SDS011;60603;52.548;13.420;2023-02-22T09:33:01;11.52;;;2.92;;
72573;SDS011;60603;52.548;13.420;2023-02-22T09:35:29;13.68;;;3.20;;
72573;SDS011;60603;52.548;13.420;2023-02-22T09:37:55;16.77;;;3.55;;
72573;SDS011;60603;52.548;13.420;2023-02-22T09:40:22;15.68;;;3.30;;
72573;SDS011;60603;52.548;13.420;2023-02-22T09:48:33;13.40;;;3.28;;
72573;SDS011;60603;52.548;13.420;2023-02-22T09:51:01;16.48;;;3.60;;
72573;SDS011;60603;52.548;13.420;2023-02-22T09:53:41;12.35;;;3.28;;
72573;SDS011;60603;52.548;13.420;2023-02-22T09:56:11;16.27;;;4.20;;
72573;SDS011;60603;52.548;13.420;2023-02-22T10:04:04;21.98;;;6.13;;
72573;SDS011;60603;52.548;13.420;2023-02-22T10:06:36;18.73;;;6.15;;
72573;SDS011;60603;52.548;13.420;2023-02-22T10:09:04;21.67;;;5.50;;
72573;SDS011;60603;52.548;13.420;2023-02-22T10:11:55;17.25;;;5.10;;
72573;SDS011;60603;52.548;13.420;2023-02-22T10:25:13;14.43;;;3.60;;
72573;SDS011;60603;52.548;13.420;2023-02-22T10:27:45;13.23;;;3.95;;
72573;SDS011;60603;52.548;13.420;2023-02-22T10:32:44;14.68;;;4.00;;
72573;SDS011;60603;52.548;13.420;2023-02-22T10:35:27;17.02;;;3.60;;
72573;SDS011;60603;52.548;13.420;2023-02-22T10:37:58;19.65;;;3.67;;
72573;SDS011;60603;52.548;13.420;2023-02-22T10:40:31;21.60;;;4.18;;
72573;SDS011;60603;52.548;13.420;2023-02-22T10:42:59;13.77;;;3.65;;
72573;SDS011;60603;52.548;13.420;2023-02-22T10:45:28;16.17;;;4.90;;
72573;SDS011;60603;52.548;13.420;2023-02-22T10:47:57;12.88;;;2.92;;
72573;SDS011;60603;52.548;13.420;2023-02-22T10:50:26;16.55;;;3.20;;
72573;SDS011;60603;52.548;13.420;2023-02-22T10:52:54;11.75;;;3.08;;
72573;SDS011;60603;52.548;13.420;2023-02-22T10:55:20;17.50;;;3.83;;
72573;SDS011;60603;52.548;13.420;2023-02-22T10:57:46;13.68;;;3.28;;
72573;SDS011;60603;52.548;13.420;2023-02-22T11:00:16;19.77;;;3.60;;
72573;SDS011;60603;52.548;13.420;2023-02-22T11:08:12;19.58;;;5.25;;
72573;SDS011;60603;52.548;13.420;2023-02-22T11:10:53;20.13;;;4.38;;
72573;SDS011;60603;52.548;13.420;2023-02-22T11:13:37;12.60;;;3.15;;
72573;SDS011;60603;52.548;13.420;2023-02-22T11:24:29;10.85;;;2.60;;
72573;SDS011;60603;52.548;13.420;2023-02-22T11:27:00;15.00;;;3.85;;
72573;SDS011;60603;52.548;13.420;2023-02-22T11:29:34;11.88;;;2.88;;
72573;SDS011;60603;52.548;13.420;2023-02-22T11:32:02;23.33;;;4.00;;
72573;SDS011;60603;52.548;13.420;2023-02-22T11:34:38;11.02;;;2.20;;
72573;SDS011;60603;52.548;13.420;2023-02-22T11:37:14;13.43;;;2.95;;
72573;SDS011;60603;52.548;13.420;2023-02-22T11:42:36;14.07;;;2.55;;
72573;SDS011;60603;52.548;13.420;2023-02-22T11:45:09;12.15;;;3.17;;
72573;SDS011;60603;52.548;13.420;2023-02-22T11:48:00;12.00;;;3.25;;
72573;SDS011;60603;52.548;13.420;2023-02-22T11:56:28;14.65;;;3.47;;
72573;SDS011;60603;52.548;13.420;2023-02-22T11:59:05;13.43;;;2.67;;
72573;SDS011;60603;52.548;13.420;2023-02-22T12:01:53;10.20;;;3.42;;
72573;SDS011;60603;52.548;13.420;2023-02-22T12:15:58;9.55;;;3.15;;
72573;SDS011;60603;52.548;13.420;2023-02-22T12:18:41;12.93;;;2.95;;
72573;SDS011;60603;52.548;13.420;2023-02-22T12:21:24;15.63;;;3.25;;
72573;SDS011;60603;52.548;13.420;2023-02-22T12:26:39;13.18;;;3.10;;
72573;SDS011;60603;52.548;13.420;2023-02-22T12:31:44;12.98;;;2.75;;
72573;SDS011;60603;52.548;13.420;2023-02-22T12:36:46;14.50;;;2.60;;
72573;SDS011;60603;52.548;13.420;2023-02-22T12:39:26;13.68;;;3.28;;
72573;SDS011;60603;52.548;13.420;2023-02-22T12:42:03;14.13;;;2.67;;
72573;SDS011;60603;52.548;13.420;2023-02-22T12:44:37;15.02;;;3.00;;
72573;SDS011;60603;52.548;13.420;2023-02-22T12:47:05;8.27;;;2.20;;
72573;SDS011;60603;52.548;13.420;2023-02-22T12:49:33;16.23;;;2.60;;
72573;SDS011;60603;52.548;13.420;2023-02-22T12:52:11;14.23;;;4.25;;
72573;SDS011;60603;52.548;13.420;2023-02-22T12:57:20;16.83;;;3.05;;
72573;SDS011;60603;52.548;13.420;2023-02-22T13:00:00;17.20;;;2.88;;
72573;SDS011;60603;52.548;13.420;2023-02-22T13:02:52;12.07;;;3.05;;
72573;SDS011;60603;52.548;13.420;2023-02-22T13:05:21;13.75;;;2.95;;
72573;SDS011;60603;52.548;13.420;2023-02-22T13:10:29;13.45;;;2.63;;
72573;SDS011;60603;52.548;13.420;2023-02-22T13:15:41;16.10;;;3.20;;
72573;SDS011;60603;52.548;13.420;2023-02-22T13:23:53;16.77;;;2.83;;
72573;SDS011;60603;52.548;13.420;2023-02-22T13:26:34;12.73;;;2.50;;
72573;SDS011;60603;52.548;13.420;2023-02-22T13:29:05;14.30;;;3.20;;
72573;SDS011;60603;52.548;13.420;2023-02-22T13:32:49;13.82;;;2.60;;
72573;SDS011;60603;52.548;13.420;2023-02-22T13:38:21;14.60;;;3.42;;
72573;SDS011;60603;52.548;13.420;2023-02-22T13:46:10;10.95;;;2.60;;
72573;SDS011;60603;52.548;13.420;2023-02-22T13:51:32;20.45;;;3.10;;
72573;SDS011;60603;52.548;13.420;2023-02-22T13:54:14;11.98;;;2.20;;
72573;SDS011;60603;52.548;13.420;2023-02-22T13:56:45;11.80;;;2.83;;
72573;SDS011;60603;52.548;13.420;2023-02-22T13:59:27;12.05;;;3.03;;
72573;SDS011;60603;52.548;13.420;2023-02-22T14:01:58;12.32;;;2.53;;
72573;SDS011;60603;52.548;13.420;2023-02-22T14:06:51;8.05;;;1.92;;
72573;SDS011;60603;52.548;13.420;2023-02-22T14:17:48;8.88;;;2.10;;
72573;SDS011;60603;52.548;13.420;2023-02-22T14:20:28;5.68;;;1.92;;
72573;SDS011;60603;52.548;13.420;2023-02-22T14:25:52;6.97;;;2.10;;
72573;SDS011;60603;52.548;13.420;2023-02-22T14:29:01;8.13;;;2.10;;
72573;SDS011;60603;52.548;13.420;2023-02-22T14:31:18;13.77;;;2.22;;
72573;SDS011;60603;52.548;13.420;2023-02-22T14:36:14;9.75;;;2.10;;
72573;SDS011;60603;52.548;13.420;2023-02-22T14:38:41;15.00;;;4.18;;
72573;SDS011;60603;52.548;13.420;2023-02-22T14:41:09;14.15;;;2.75;;
72573;SDS011;60603;52.548;13.420;2023-02-22T14:43:36;16.35;;;2.25;;
72573;SDS011;60603;52.548;13.420;2023-02-22T14:46:02;8.23;;;1.95;;
72573;SDS011;60603;52.548;13.420;2023-02-22T14:48:31;10.93;;;2.40;;
72573;SDS011;60603;52.548;13.420;2023-02-22T14:51:04;10.25;;;2.40;;
72573;SDS011;60603;52.548;13.420;2023-02-22T14:56:14;11.07;;;2.20;;
72573;SDS011;60603;52.548;13.420;2023-02-22T15:01:30;9.45;;;2.40;;
72573;SDS011;60603;52.548;13.420;2023-02-22T15:06:44;11.85;;;2.67;;
72573;SDS011;60603;52.548;13.420;2023-02-22T15:09:18;14.60;;;2.83;;
72573;SDS011;60603;52.548;13.420;2023-02-22T15:14:19;11.45;;;3.58;;
72573;SDS011;60603;52.548;13.420;2023-02-22T15:17:00;16.67;;;3.15;;
72573;SDS011;60603;52.548;13.420;2023-02-22T15:19:29;11.65;;;2.45;;
72573;SDS011;60603;52.548;13.420;2023-02-22T15:21:57;9.13;;;2.17;;
72573;SDS011;60603;52.548;13.420;2023-02-22T15:24:25;14.77;;;2.95;;
72573;SDS011;60603;52.548;13.420;2023-02-22T15:26:54;12.18;;;2.53;;
72573;SDS011;60603;52.548;13.420;2023-02-22T15:29:24;16.52;;;2.50;;
72573;SDS011;60603;52.548;13.420;2023-02-22T15:31:54;15.32;;;2.78;;
72573;SDS011;60603;52.548;13.420;2023-02-22T15:34:23;8.85;;;2.10;;
72573;SDS011;60603;52.548;13.420;2023-02-22T15:36:54;7.80;;;1.85;;
72573;SDS011;60603;52.548;13.420;2023-02-22T15:44:27;11.13;;;2.22;;
72573;SDS011;60603;52.548;13.420;2023-02-22T15:46:56;8.52;;;2.38;;
72573;SDS011;60603;52.548;13.420;2023-02-22T15:49:23;11.80;;;2.80;;
72573;SDS011;60603;52.548;13.420;2023-02-22T15:51:57;9.68;;;2.13;;
72573;SDS011;60603;52.548;13.420;2023-02-22T15:54:27;13.07;;;2.80;;
72573;SDS011;60603;52.548;13.420;2023-02-22T15:56:53;12.95;;;2.50;;
72573;SDS011;60603;52.548;13.420;2023-02-22T15:59:23;10.52;;;2.78;;
72573;SDS011;60603;52.548;13.420;2023-02-22T16:01:54;14.48;;;3.28;;
72573;SDS011;60603;52.548;13.420;2023-02-22T16:04:23;15.23;;;2.47;;
72573;SDS011;60603;52.548;13.420;2023-02-22T16:06:52;11.90;;;1.95;;
72573;SDS011;60603;52.548;13.420;2023-02-22T16:09:28;8.30;;;2.08;;
72573;SDS011;60603;52.548;13.420;2023-02-22T16:25:21;11.82;;;2.75;;
72573;SDS011;60603;52.548;13.420;2023-02-22T16:27:50;10.65;;;2.83;;
72573;SDS011;60603;52.548;13.420;2023-02-22T16:30:35;11.57;;;2.35;;
72573;SDS011;60603;52.548;13.420;2023-02-22T16:33:06;12.27;;;2.47;;
72573;SDS011;60603;52.548;13.420;2023-02-22T16:35:38;14.05;;;2.80;;
72573;SDS011;60603;52.548;13.420;2023-02-22T16:38:06;15.30;;;3.08;;
72573;SDS011;60603;52.548;13.420;2023-02-22T16:40:43;10.95;;;2.90;;
72573;SDS011;60603;52.548;13.420;2023-02-22T16:43:19;12.27;;;3.05;;
72573;SDS011;60603;52.548;13.420;2023-02-22T16:45:46;8.63;;;2.42;;
72573;SDS011;60603;52.548;13.420;2023-02-22T16:48:17;13.23;;;2.80;;
72573;SDS011;60603;52.548;13.420;2023-02-22T16:50:45;12.48;;;2.72;;
72573;SDS011;60603;52.548;13.420;2023-02-22T16:53:12;12.52;;;3.17;;
72573;SDS011;60603;52.548;13.420;2023-02-22T16:55:40;11.93;;;2.50;;
72573;SDS011;60603;52.548;13.420;2023-02-22T16:58:09;12.30;;;2.30;;
72573;SDS011;60603;52.548;13.420;2023-02-22T17:00:37;10.35;;;3.10;;
72573;SDS011;60603;52.548;13.420;2023-02-22T17:03:03;18.85;;;2.67;;
72573;SDS011;60603;52.548;13.420;2023-02-22T17:05:30;9.00;;;2.10;;
72573;SDS011;60603;52.548;13.420;2023-02-22T17:08:01;15.32;;;3.10;;
72573;SDS011;60603;52.548;13.420;2023-02-22T17:10:27;9.90;;;1.95;;
72573;SDS011;60603;52.548;13.420;2023-02-22T17:12:53;10.93;;;2.30;;
72573;SDS011;60603;52.548;13.420;2023-02-22T17:15:21;12.60;;;3.20;;
72573;SDS011;60603;52.548;13.420;2023-02-22T17:17:49;8.40;;;2.40;;
72573;SDS011;60603;52.548;13.420;2023-02-22T17:20:16;5.80;;;2.33;;
72573;SDS011;60603;52.548;13.420;2023-02-22T17:22:55;9.90;;;2.47;;
72573;SDS011;60603;52.548;13.420;2023-02-22T17:25:30;7.75;;;2.70;;
72573;SDS011;60603;52.548;13.420;2023-02-22T17:27:59;9.82;;;2.92;;
72573;SDS011;60603;52.548;13.420;2023-02-22T17:30:24;13.40;;;2.90;;
72573;SDS011;60603;52.548;13.420;2023-02-22T17:32:51;12.32;;;3.17;;
72573;SDS011;60603;52.548;13.420;2023-02-22T17:35:20;10.95;;;2.28;;
72573;SDS011;60603;52.548;13.420;2023-02-22T17:37:48;12.57;;;2.92;;
72573;SDS011;60603;52.548;13.420;2023-02-22T17:40:15;11.57;;;2.42;;